Aquasco, MD

11:56 PM EDT on September 19, 2014 (GMT -0400)
Hugesville/Waldorf - Hidden Valley | Change Station
CLOSE
Current Station
Personal Weather Station
Location: Waldorf, MD
Elevation: 174 ft
Nearby Weather Stations

Elev 174 ft 38.56 °N, 76.79 °W | Updated 4 minutes ago

Mostly Cloudy
Mostly Cloudy
63.3 °F
Feels Like 63.3 °F
N
0.0
Wind Variable Wind from NW
Gusts 0.0 mph

Today
High -- | Low -- °F
--% Chance of Precip.
Yesterday
High -- | Low -- °F
Precip. -- in
6:51 AM 7:08 PM
Waning Crescent, 15% visible
Pressure 30.33 in
Visibility 10.0 miles
Clouds Few 2700 ft
Overcast 9000 ft
Dew Point 62 °F
Humidity 95%
Rainfall 0.00 in
Snow Depth Not available.
UV 0 out of 12
Pollen 4.50 out of 12
Air Quality Not available.
Flu Activity Not available.
METAR KADW 200258Z AUTO 09005KT 10SM FEW027 OVC090 18/16 A3031 RMK AO2 SLP270 T01840157 52010 $

More Conditions Fewer Conditions

Pressure 30.33 in
Visibility 10.0 miles
Clouds Few 2700 ft
Overcast 9000 ft
Dew Point 62 °F
Humidity 95%
Rainfall 0.00 in
Snow Depth Not available.
UV 0 out of 12
Pollen 4.50 out of 12
Air Quality Not available.
Flu Activity Not available.
METAR KADW 200258Z AUTO 09005KT 10SM FEW027 OVC090 18/16 A3031 RMK AO2 SLP270 T01840157 52010 $

More Conditions Fewer Conditions

10-Day Weather Forecast

Almanac

Astronomy

Sep. 19, 2014 Rise Set
Actual Time 6:51 AM EDT 7:08 PM EDT
Civil Twilight 6:25 AM EDT 7:35 PM EDT
Nautical Twilight 5:54 AM EDT 8:06 PM EDT
Astronomical Twilight 5:22 AM EDT 8:37 PM EDT
Moon 2:37 AM EDT (9/19) 4:34 PM EDT (9/19)
Length of Visible Light 13h 09m
Length of Day
12h 16m
Tomorrow will be 2m 30s shorter.
Waning Crescent, 15% of the Moon is Illuminated
Today
Waning Crescent
Sep 24
New
Oct 1
First Quarter
Oct 8
Full
Oct 15
Last Quarter

Today's Extremes

State Highs State Lows

Community

WunderPhotos

Upload Photos

1,754,777 photos uploaded!

WunderBlogs® & News

Nearby

Snow Depth

Station Depth Elevation
No new snow has been reported.

Earthquake Activity

City Distance Mag. Time & Date
No recent earthquake activity has been reported nearby.
Minimum magnitude displayed is 2.5.

Coastal Water Temperatures

Place Temperature
Solomons Island, MD 75.9 °F
Cambridge, MD 75.0 °F

Nearby Weather Stations